Time;durP1;ratioP1;P1;durP2;ratioP2;P2;SDS_P1;SDS_P2;PMS_P1;PMS_P2;Temp;Humidity;BMP_temperature;BMP_pressure;BME280_temperature;BME280_humidity;BME280_pressure;Samples;Min_cycle;Max_cycle;Signal;HPM_P1;HPM_P2
2023/06/10 00:01:25;;;;;;;9.35;6.22;;;17.50;99.90;;;;;;5055005;28;20064;-79
2023/06/10 00:03:54;;;;;;;8.43;5.80;;;17.50;99.90;;;;;;5056019;28;20059;-79
2023/06/10 00:06:21;;;;;;;8.02;5.40;;;17.60;99.90;;;;;;5034996;28;20063;-79
2023/06/10 00:08:47;;;;;;;7.00;5.88;;;17.50;99.90;;;;;;5050835;28;20032;-79
2023/06/10 00:11:13;;;;;;;9.93;5.53;;;17.40;99.90;;;;;;5035572;28;20036;-79
2023/06/10 00:13:39;;;;;;;8.85;6.55;;;17.40;99.90;;;;;;5038691;28;20402;-78
2023/06/10 00:16:05;;;;;;;9.15;5.72;;;17.40;99.90;;;;;;5071292;28;21807;-79
2023/06/10 00:18:31;;;;;;;7.88;5.70;;;17.30;99.90;;;;;;5055074;28;20037;-79
2023/06/10 00:21:02;;;;;;;9.82;5.70;;;17.30;99.90;;;;;;5065918;28;20032;-79
2023/06/10 00:23:30;;;;;;;8.57;5.95;;;17.30;99.90;;;;;;5040623;28;20407;-79
2023/06/10 00:25:59;;;;;;;7.90;5.65;;;17.30;99.90;;;;;;5035216;28;20037;-79
2023/06/10 00:28:25;;;;;;;8.10;5.65;;;17.20;99.90;;;;;;5035394;28;20040;-80
2023/06/10 00:30:51;;;;;;;7.93;5.22;;;17.20;99.90;;;;;;5035817;28;20410;-79
2023/06/10 00:33:16;;;;;;;8.30;5.47;;;17.20;99.90;;;;;;5037918;28;20039;-78
2023/06/10 00:35:42;;;;;;;9.25;5.53;;;17.30;99.90;;;;;;5055008;28;20044;-79
2023/06/10 00:38:07;;;;;;;7.00;5.38;;;17.30;99.90;;;;;;5038539;28;20040;-79
2023/06/10 00:40:39;;;;;;;7.40;5.60;;;17.30;99.90;;;;;;5038525;28;20074;-79
2023/06/10 00:43:05;;;;;;;9.82;6.30;;;17.20;99.90;;;;;;5035264;28;20044;-79
2023/06/10 00:45:31;;;;;;;7.72;5.75;;;17.20;99.90;;;;;;5054588;28;20521;-79
2023/06/10 00:47:56;;;;;;;8.05;6.22;;;17.20;99.90;;;;;;5054303;28;20032;-79
2023/06/10 00:50:22;;;;;;;8.18;6.00;;;17.20;99.90;;;;;;5038390;28;20097;-79
2023/06/10 00:52:48;;;;;;;7.43;5.90;;;17.10;99.90;;;;;;5038577;28;20059;-79
2023/06/10 00:55:16;;;;;;;8.77;6.57;;;17.20;99.90;;;;;;5071458;28;20083;-79
2023/06/10 00:57:44;;;;;;;7.93;6.10;;;17.10;99.90;;;;;;5038736;28;20097;-79
2023/06/10 01:00:10;;;;;;;9.27;6.43;;;17.00;99.90;;;;;;5054554;28;20060;-79
2023/06/10 01:02:36;;;;;;;8.52;6.47;;;17.00;99.90;;;;;;5054736;28;20040;-79
2023/06/10 01:05:02;;;;;;;9.02;6.55;;;16.90;99.90;;;;;;5071538;28;20487;-79
2023/06/10 01:07:43;;;;;;;8.20;6.45;;;16.90;99.90;;;;;;5037814;28;20040;-79
2023/06/10 01:10:15;;;;;;;9.43;6.45;;;16.90;99.90;;;;;;5053950;28;20041;-79
2023/06/10 01:13:02;;;;;;;8.70;6.40;;;16.80;99.90;;;;;;5053414;28;20102;-79
2023/06/10 01:15:31;;;;;;;9.43;6.30;;;16.70;99.90;;;;;;5034527;28;20045;-78
2023/06/10 01:18:01;;;;;;;9.13;6.80;;;16.60;99.90;;;;;;5017503;28;20052;-79
2023/06/10 01:20:28;;;;;;;10.95;7.10;;;16.60;99.90;;;;;;5034477;28;20135;-79
2023/06/10 01:23:00;;;;;;;8.70;6.68;;;16.50;99.90;;;;;;5034568;28;20049;-78
2023/06/10 01:25:32;;;;;;;8.95;6.50;;;16.50;99.90;;;;;;5030619;28;20040;-78
2023/06/10 01:28:03;;;;;;;9.63;6.90;;;16.50;99.90;;;;;;5037315;28;20049;-79
2023/06/10 01:30:37;;;;;;;9.27;6.60;;;16.50;99.90;;;;;;5037799;28;20499;-79
2023/06/10 01:33:05;;;;;;;8.77;6.38;;;16.40;99.90;;;;;;5056591;28;20408;-79
2023/06/10 01:35:31;;;;;;;9.45;6.85;;;16.40;99.90;;;;;;5037672;28;20036;-79
2023/06/10 01:37:59;;;;;;;9.02;7.07;;;16.30;99.90;;;;;;5036617;28;20037;-79
2023/06/10 01:40:26;;;;;;;8.85;6.90;;;16.30;99.90;;;;;;5055487;28;20040;-79
2023/06/10 01:42:52;;;;;;;10.27;7.18;;;16.20;99.90;;;;;;5057557;28;20052;-79
2023/06/10 01:45:17;;;;;;;9.18;6.95;;;16.20;99.90;;;;;;5057337;28;20122;-81
2023/06/10 01:47:43;;;;;;;10.32;7.07;;;16.10;99.90;;;;;;5053202;28;20380;-79
2023/06/10 01:50:09;;;;;;;8.57;6.93;;;16.10;99.90;;;;;;5044156;28;20467;-79
2023/06/10 01:52:35;;;;;;;8.30;7.00;;;16.10;99.90;;;;;;5050847;28;20043;-79
2023/06/10 01:55:00;;;;;;;10.18;7.10;;;16.00;99.90;;;;;;5034262;28;20041;-79
2023/06/10 01:57:26;;;;;;;9.98;6.57;;;16.00;99.90;;;;;;5037074;28;20643;-79
2023/06/10 01:59:51;;;;;;;8.95;7.30;;;15.90;99.90;;;;;;5036999;28;20443;-79
2023/06/10 02:02:17;;;;;;;9.32;7.45;;;16.00;99.90;;;;;;5039068;28;20032;-79
2023/06/10 02:04:43;;;;;;;8.80;7.15;;;15.90;99.90;;;;;;5030558;28;20029;-79
2023/06/10 02:07:08;;;;;;;9.77;7.20;;;15.90;99.90;;;;;;5035292;28;20455;-79
2023/06/10 02:09:35;;;;;;;9.43;6.95;;;15.80;99.90;;;;;;5069917;28;20032;-79
2023/06/10 02:12:03;;;;;;;8.27;7.32;;;15.80;99.90;;;;;;5052785;28;20049;-79
2023/06/10 02:14:29;;;;;;;9.52;7.28;;;15.70;99.90;;;;;;5032827;28;20040;-79
2023/06/10 02:16:56;;;;;;;10.50;7.60;;;15.80;99.90;;;;;;5021528;28;20033;-79
2023/06/10 02:19:23;;;;;;;9.82;7.10;;;15.70;99.90;;;;;;5048097;28;20131;-80
2023/06/10 02:21:49;;;;;;;9.65;7.55;;;15.70;99.90;;;;;;5036947;28;20044;-80
2023/06/10 02:24:14;;;;;;;9.88;7.40;;;15.60;99.90;;;;;;5069295;28;20453;-80
2023/06/10 02:26:40;;;;;;;9.38;7.07;;;15.50;99.90;;;;;;5061982;28;20075;-80
2023/06/10 02:29:06;;;;;;;10.38;7.60;;;15.50;99.90;;;;;;5035906;28;20041;-80
2023/06/10 02:31:35;;;;;;;12.35;7.95;;;15.50;99.90;;;;;;5048274;28;20106;-80
2023/06/10 02:34:01;;;;;;;8.57;7.68;;;15.50;99.90;;;;;;5033226;28;20044;-80
2023/06/10 02:36:27;;;;;;;10.52;8.00;;;15.50;99.90;;;;;;5040535;28;20119;-80
2023/06/10 02:38:53;;;;;;;8.88;7.45;;;15.40;99.90;;;;;;5023339;28;20048;-80
2023/06/10 02:41:19;;;;;;;11.57;8.38;;;15.40;99.90;;;;;;5036039;28;20058;-80
2023/06/10 02:43:44;;;;;;;8.90;8.00;;;15.40;99.90;;;;;;5061797;28;20035;-80
2023/06/10 02:46:10;;;;;;;9.93;7.97;;;15.30;99.90;;;;;;5050410;28;20090;-80
2023/06/10 02:48:46;;;;;;;9.10;8.10;;;15.30;99.90;;;;;;5026533;28;20479;-80
2023/06/10 02:51:11;;;;;;;9.13;7.60;;;15.30;99.90;;;;;;5051099;28;20059;-80
2023/06/10 02:53:37;;;;;;;10.35;7.43;;;15.30;99.90;;;;;;5030814;28;20471;-80
2023/06/10 02:56:03;;;;;;;10.88;8.07;;;15.30;99.90;;;;;;5044151;28;20074;-80
2023/06/10 02:58:28;;;;;;;9.27;8.27;;;15.20;99.90;;;;;;5050428;28;20033;-80
2023/06/10 03:00:54;;;;;;;10.07;8.25;;;15.20;99.90;;;;;;5021096;28;20037;-80
2023/06/10 03:03:22;;;;;;;11.93;8.23;;;15.20;99.90;;;;;;5052598;28;20540;-80
2023/06/10 03:05:48;;;;;;;11.20;8.20;;;15.20;99.90;;;;;;5030140;28;20051;-80
2023/06/10 03:08:14;;;;;;;10.60;8.43;;;15.10;99.90;;;;;;5054001;28;20037;-80
2023/06/10 03:10:39;;;;;;;11.60;7.85;;;15.10;99.90;;;;;;5050810;28;20082;-80
2023/06/10 03:13:05;;;;;;;11.60;8.95;;;15.20;99.90;;;;;;5056720;28;20037;-80
2023/06/10 03:15:32;;;;;;;9.88;8.45;;;15.10;99.90;;;;;;5056301;28;20086;-80
2023/06/10 03:18:00;;;;;;;10.18;8.50;;;15.10;99.90;;;;;;5056263;28;20410;-80
2023/06/10 03:20:27;;;;;;;11.55;8.88;;;15.10;99.90;;;;;;5049556;28;20039;-80
2023/06/10 03:22:53;;;;;;;9.73;8.15;;;15.10;99.90;;;;;;5049049;28;20076;-80
2023/06/10 03:25:20;;;;;;;10.40;8.55;;;15.10;99.90;;;;;;5055931;28;20490;-80
2023/06/10 03:27:46;;;;;;;12.77;8.90;;;15.00;99.90;;;;;;5056171;28;20040;-80
2023/06/10 03:30:13;;;;;;;11.13;8.98;;;15.00;99.90;;;;;;5038951;28;20553;-80
2023/06/10 03:32:40;;;;;;;10.13;8.90;;;15.00;99.90;;;;;;5045186;28;20045;-80
2023/06/10 03:35:07;;;;;;;12.65;8.63;;;15.00;99.90;;;;;;5052740;28;20055;-80
2023/06/10 03:37:32;;;;;;;12.60;8.88;;;15.00;99.90;;;;;;5035955;28;20040;-80
2023/06/10 03:39:58;;;;;;;9.82;8.68;;;15.00;99.90;;;;;;5066893;28;20509;-80
2023/06/10 03:42:23;;;;;;;11.77;8.68;;;15.00;99.90;;;;;;5061014;28;20033;-80
2023/06/10 03:44:49;;;;;;;10.48;8.48;;;15.00;99.90;;;;;;5055945;28;20573;-80
2023/06/10 03:47:14;;;;;;;10.15;9.02;;;15.00;99.90;;;;;;5030436;28;20040;-80
2023/06/10 03:49:40;;;;;;;11.55;8.90;;;15.00;99.90;;;;;;5049569;28;20032;-80
2023/06/10 03:52:06;;;;;;;12.55;9.07;;;15.00;99.90;;;;;;5055762;28;20090;-81
2023/06/10 03:54:34;;;;;;;9.45;8.18;;;15.00;99.90;;;;;;5054544;28;20047;-80
2023/06/10 03:57:00;;;;;;;10.98;8.20;;;15.00;99.90;;;;;;5055045;28;20095;-80
2023/06/10 03:59:25;;;;;;;11.82;8.30;;;15.00;99.90;;;;;;5070986;28;20029;-80
2023/06/10 04:01:51;;;;;;;9.98;8.57;;;15.00;99.90;;;;;;5055158;28;20082;-80
2023/06/10 04:04:17;;;;;;;10.23;8.15;;;15.10;99.90;;;;;;5050067;28;20494;-80
2023/06/10 04:06:44;;;;;;;10.82;8.35;;;15.10;99.90;;;;;;5055117;28;20076;-80
2023/06/10 04:09:10;;;;;;;8.80;7.60;;;15.10;99.90;;;;;;5054697;28;20413;-80
2023/06/10 04:11:35;;;;;;;10.93;7.32;;;15.10;99.90;;;;;;5054492;28;20124;-80
2023/06/10 04:14:01;;;;;;;11.57;8.60;;;15.10;99.90;;;;;;5068350;28;20040;-80
2023/06/10 04:16:27;;;;;;;11.43;8.18;;;15.10;99.90;;;;;;5059470;28;20487;-80
2023/06/10 04:18:53;;;;;;;10.88;7.93;;;15.20;99.90;;;;;;5051339;28;20069;-80
2023/06/10 04:21:19;;;;;;;12.63;8.38;;;15.10;99.90;;;;;;5063571;28;20466;-80
2023/06/10 04:23:44;;;;;;;10.23;8.00;;;15.20;99.90;;;;;;5050531;28;20124;-80
2023/06/10 04:26:12;;;;;;;10.85;7.32;;;15.50;99.90;;;;;;5054821;28;20472;-80
2023/06/10 04:28:37;;;;;;;8.80;7.50;;;16.00;99.90;;;;;;5054930;28;20039;-80
2023/06/10 04:31:04;;;;;;;9.65;7.53;;;16.40;99.90;;;;;;5054240;28;20040;-80
2023/06/10 04:33:30;;;;;;;9.77;7.38;;;16.80;99.90;;;;;;5027371;28;20075;-80
2023/06/10 04:35:56;;;;;;;9.05;7.57;;;17.10;99.90;;;;;;5053966;28;20043;-80
2023/06/10 04:38:21;;;;;;;11.43;7.40;;;17.40;99.90;;;;;;5054884;28;20037;-80
2023/06/10 04:40:47;;;;;;;9.50;7.10;;;17.50;99.90;;;;;;5050732;28;20127;-81
2023/06/10 04:43:13;;;;;;;9.32;7.20;;;17.70;99.90;;;;;;5042037;28;20482;-80
2023/06/10 04:45:39;;;;;;;11.98;7.00;;;17.90;99.90;;;;;;5054979;28;20040;-80
2023/06/10 04:48:05;;;;;;;10.32;7.22;;;18.10;99.90;;;;;;5071242;28;20037;-80
2023/06/10 04:50:32;;;;;;;10.07;7.43;;;18.20;99.90;;;;;;5048370;28;20067;-80
2023/06/10 04:52:58;;;;;;;9.07;6.82;;;18.40;99.90;;;;;;5053893;28;20552;-81
2023/06/10 04:55:24;;;;;;;8.02;6.28;;;18.60;99.90;;;;;;5071367;28;20040;-81
2023/06/10 04:57:50;;;;;;;9.25;6.45;;;18.70;99.90;;;;;;5054482;28;20040;-80
2023/06/10 05:00:16;;;;;;;9.85;6.55;;;18.80;99.90;;;;;;5053595;28;20041;-80
2023/06/10 05:02:42;;;;;;;8.30;6.28;;;19.00;99.90;;;;;;5044624;28;20044;-80
2023/06/10 05:05:07;;;;;;;7.95;6.22;;;19.10;99.90;;;;;;5054533;28;20040;-81
2023/06/10 05:07:33;;;;;;;9.77;6.75;;;19.30;99.90;;;;;;5070933;28;20032;-81
2023/06/10 05:09:58;;;;;;;9.73;6.38;;;19.40;99.90;;;;;;5037209;28;20045;-81
2023/06/10 05:12:24;;;;;;;8.85;7.00;;;19.50;99.90;;;;;;5054298;28;20097;-80
2023/06/10 05:14:50;;;;;;;8.95;6.95;;;19.70;99.90;;;;;;5054521;28;20032;-81
2023/06/10 05:17:15;;;;;;;7.55;6.07;;;19.80;99.90;;;;;;5053614;28;20541;-80
2023/06/10 05:19:43;;;;;;;8.43;6.57;;;19.90;99.90;;;;;;5054105;28;20040;-81
2023/06/10 05:22:08;;;;;;;17.05;10.98;;;20.10;98.40;;;;;;5049964;28;20045;-80
2023/06/10 05:24:34;;;;;;;12.68;8.90;;;20.10;99.60;;;;;;5054036;28;20398;-81
2023/06/10 05:27:00;;;;;;;9.35;7.38;;;20.30;98.00;;;;;;5050892;28;20029;-81
2023/06/10 05:29:25;;;;;;;9.35;6.65;;;20.50;93.00;;;;;;5053672;28;20032;-81
2023/06/10 05:31:51;;;;;;;8.98;5.95;;;20.50;94.10;;;;;;5035830;28;20040;-81
2023/06/10 05:34:17;;;;;;;8.55;6.05;;;20.50;93.40;;;;;;5051561;28;20121;-81
2023/06/10 05:36:43;;;;;;;11.77;6.90;;;20.60;93.40;;;;;;5054049;28;20406;-81
2023/06/10 05:39:10;;;;;;;8.98;6.28;;;20.70;94.80;;;;;;5054260;28;20043;-81
2023/06/10 05:41:35;;;;;;;10.48;6.60;;;20.90;90.50;;;;;;5047812;28;20028;-81
2023/06/10 05:44:01;;;;;;;9.80;7.10;;;20.70;87.30;;;;;;5045781;28;20478;-80
2023/06/10 05:46:27;;;;;;;10.13;6.70;;;20.70;91.60;;;;;;5037518;28;20068;-81
2023/06/10 05:48:52;;;;;;;11.82;8.60;;;20.80;92.60;;;;;;5037389;28;20036;-81
2023/06/10 05:51:18;;;;;;;9.98;7.97;;;21.00;89.70;;;;;;5068901;28;20656;-80
2023/06/10 05:53:46;;;;;;;10.63;7.45;;;21.10;85.00;;;;;;5058236;28;20387;-81
2023/06/10 05:56:12;;;;;;;10.07;6.55;;;21.00;87.10;;;;;;5051355;28;20040;-80
2023/06/10 05:58:38;;;;;;;8.48;6.15;;;20.90;85.50;;;;;;5034258;28;20041;-81
2023/06/10 06:01:03;;;;;;;9.48;6.45;;;20.80;86.70;;;;;;5047475;28;20544;-80
2023/06/10 06:03:29;;;;;;;9.48;6.13;;;20.40;94.60;;;;;;5036869;28;20471;-81
2023/06/10 06:05:55;;;;;;;10.32;6.68;;;19.80;99.90;;;;;;5052289;28;20037;-80
2023/06/10 06:08:20;;;;;;;8.23;6.43;;;19.40;99.90;;;;;;5046340;28;20033;-82
2023/06/10 06:10:47;;;;;;;8.95;6.68;;;19.20;99.90;;;;;;5034392;28;20043;-82
2023/06/10 06:13:13;;;;;;;8.65;6.53;;;19.00;99.90;;;;;;5052474;28;20045;-81
2023/06/10 06:15:38;;;;;;;9.63;6.97;;;18.80;99.90;;;;;;5017792;28;20045;-84
2023/06/10 06:18:04;;;;;;;9.35;6.75;;;18.70;99.90;;;;;;5051615;28;20072;-83
2023/06/10 06:20:29;;;;;;;8.77;6.07;;;18.70;99.90;;;;;;5063603;28;20380;-82
2023/06/10 06:22:55;;;;;;;9.65;7.05;;;18.60;99.90;;;;;;5047803;28;20408;-82
2023/06/10 06:25:21;;;;;;;8.40;6.50;;;18.70;99.90;;;;;;5045334;28;20043;-82
2023/06/10 06:27:46;;;;;;;10.10;6.20;;;18.60;99.90;;;;;;5035644;28;20453;-82
2023/06/10 06:30:12;;;;;;;8.55;5.97;;;18.60;99.90;;;;;;5052784;28;20059;-82
2023/06/10 06:32:37;;;;;;;9.02;6.82;;;18.70;99.90;;;;;;5028047;28;20043;-83
2023/06/10 06:35:05;;;;;;;9.55;6.22;;;18.80;99.90;;;;;;5052862;28;20533;-82
2023/06/10 06:37:31;;;;;;;8.18;6.90;;;18.90;99.90;;;;;;5051591;28;20044;-84
2023/06/10 06:39:58;;;;;;;10.25;6.72;;;18.90;99.90;;;;;;5042277;28;20040;-83
2023/06/10 06:42:23;;;;;;;9.98;6.38;;;18.90;99.90;;;;;;5039151;28;20487;-81
2023/06/10 06:44:49;;;;;;;9.98;6.05;;;19.00;99.90;;;;;;5052220;28;20043;-82
2023/06/10 06:47:14;;;;;;;8.50;5.82;;;18.90;99.90;;;;;;5050628;28;20041;-83
2023/06/10 06:49:40;;;;;;;8.80;5.85;;;19.00;99.90;;;;;;5053763;28;20043;-82
2023/06/10 06:52:06;;;;;;;8.25;6.18;;;19.10;99.90;;;;;;5046742;28;20075;-83
2023/06/10 06:54:31;;;;;;;9.43;6.32;;;19.20;99.90;;;;;;5052113;28;20033;-82
2023/06/10 06:56:57;;;;;;;10.02;6.22;;;19.30;99.90;;;;;;5058866;28;20037;-82
2023/06/10 06:59:23;;;;;;;8.43;6.13;;;19.30;99.90;;;;;;5053254;28;20045;-82
2023/06/10 07:01:49;;;;;;;8.98;6.32;;;19.30;99.90;;;;;;5038152;28;20083;-84
2023/06/10 07:04:15;;;;;;;9.80;5.72;;;19.40;99.90;;;;;;5039936;28;20060;-85
2023/06/10 07:06:41;;;;;;;10.35;5.85;;;19.50;99.90;;;;;;5039760;28;20507;-85
2023/06/10 07:09:08;;;;;;;9.13;6.15;;;19.50;99.90;;;;;;5039227;28;20043;-85
2023/06/10 07:11:34;;;;;;;11.05;6.15;;;19.60;99.90;;;;;;5056895;28;20036;-87
2023/06/10 07:13:59;;;;;;;12.00;6.30;;;19.60;99.90;;;;;;5040285;28;20085;-85
2023/06/10 07:16:25;;;;;;;8.77;5.80;;;19.80;99.90;;;;;;5040578;28;20038;-85
2023/06/10 07:18:52;;;;;;;9.70;6.07;;;19.80;99.90;;;;;;5055188;28;20041;-85
2023/06/10 07:21:17;;;;;;;7.25;5.70;;;19.80;99.90;;;;;;5045200;28;20045;-86
2023/06/10 07:23:43;;;;;;;8.30;6.00;;;20.00;99.90;;;;;;5020512;28;20037;-85
2023/06/10 07:26:10;;;;;;;10.10;6.10;;;20.10;99.90;;;;;;5051861;28;20044;-86
2023/06/10 07:28:37;;;;;;;9.77;6.03;;;20.10;99.90;;;;;;5046582;28;20493;-85
2023/06/10 07:31:03;;;;;;;9.35;5.72;;;20.20;99.90;;;;;;5044474;28;20040;-86
2023/06/10 07:33:29;;;;;;;8.93;5.93;;;20.30;99.90;;;;;;5056476;28;20111;-86
2023/06/10 07:35:55;;;;;;;9.98;6.07;;;20.40;99.90;;;;;;5054761;28;20516;-84
2023/06/10 07:38:20;;;;;;;8.77;5.43;;;20.60;99.90;;;;;;5050523;28;20060;-86
2023/06/10 07:40:46;;;;;;;9.70;5.55;;;20.70;99.90;;;;;;5050957;28;20043;-85
2023/06/10 07:43:12;;;;;;;9.68;5.18;;;21.00;99.90;;;;;;5056102;28;20095;-83
2023/06/10 07:45:39;;;;;;;12.00;5.82;;;21.30;93.90;;;;;;5056712;28;20028;-83
2023/06/10 07:48:05;;;;;;;10.15;5.90;;;21.70;90.60;;;;;;5033495;28;20033;-83
2023/06/10 07:50:31;;;;;;;7.93;5.43;;;22.20;84.10;;;;;;5039104;28;20043;-84
2023/06/10 07:52:56;;;;;;;8.65;5.82;;;22.70;79.70;;;;;;5053692;28;20029;-86
2023/06/10 07:55:22;;;;;;;8.32;5.90;;;23.30;71.70;;;;;;5056151;28;20089;-85
2023/06/10 07:57:47;;;;;;;8.07;5.35;;;23.60;70.20;;;;;;5043949;28;20043;-85
2023/06/10 08:00:14;;;;;;;8.65;5.30;;;23.90;67.40;;;;;;5041587;28;20037;-81
2023/06/10 08:02:40;;;;;;;6.40;4.50;;;24.20;67.60;;;;;;5037794;28;20055;-81
2023/06/10 08:05:06;;;;;;;8.52;5.03;;;24.60;68.80;;;;;;5039151;28;20089;-81
2023/06/10 08:07:32;;;;;;;8.90;5.15;;;25.10;65.00;;;;;;5038725;28;20035;-79
2023/06/10 08:09:57;;;;;;;7.85;4.90;;;25.40;62.90;;;;;;5055492;28;20131;-81
2023/06/10 08:12:23;;;;;;;9.18;5.15;;;25.70;61.20;;;;;;5055373;28;20037;-80
2023/06/10 08:14:49;;;;;;;6.03;4.45;;;25.80;62.20;;;;;;5053986;28;20040;-79
2023/06/10 08:17:14;;;;;;;8.38;5.32;;;26.10;60.70;;;;;;5051799;28;20319;-80
2023/06/10 08:19:40;;;;;;;8.35;4.95;;;26.20;59.80;;;;;;5068687;22;20033;-77
2023/06/10 08:22:05;;;;;;;6.65;4.47;;;26.10;60.30;;;;;;5050497;28;20046;-77
2023/06/10 08:24:31;;;;;;;7.50;4.80;;;26.40;59.80;;;;;;5068564;28;20043;-77
2023/06/10 08:26:57;;;;;;;8.68;4.70;;;26.70;58.50;;;;;;5067562;28;20041;-77
2023/06/10 08:29:23;;;;;;;6.32;4.38;;;26.80;57.60;;;;;;5045825;28;20037;-77
2023/06/10 08:31:49;;;;;;;7.80;4.72;;;26.80;57.10;;;;;;5031289;28;20063;-78
2023/06/10 08:34:15;;;;;;;4.53;4.00;;;26.80;55.50;;;;;;5036955;28;20060;-77
2023/06/10 08:36:40;;;;;;;8.73;4.80;;;26.90;54.50;;;;;;5014381;28;20037;-77
2023/06/10 08:39:07;;;;;;;7.68;4.13;;;26.70;55.70;;;;;;5031851;28;20507;-77
2023/06/10 08:41:39;;;;;;;6.97;4.50;;;26.70;55.90;;;;;;5031993;28;20486;-76
2023/06/10 08:44:20;;;;;;;7.60;5.47;;;26.90;55.50;;;;;;5031562;28;20099;-77
2023/06/10 08:46:46;;;;;;;6.65;5.00;;;27.00;54.30;;;;;;5030804;28;20310;-76
2023/06/10 08:49:17;;;;;;;7.55;4.80;;;27.00;53.90;;;;;;5023072;28;20056;-77
2023/06/10 08:51:43;;;;;;;5.50;4.40;;;27.10;53.50;;;;;;5030149;28;20112;-77
2023/06/10 08:54:21;;;;;;;7.50;4.85;;;27.00;54.60;;;;;;5032493;28;20120;-77
2023/06/10 08:56:51;;;;;;;6.85;4.45;;;27.20;54.20;;;;;;5014090;28;20116;-77
2023/06/10 08:59:16;;;;;;;6.55;4.43;;;27.30;54.00;;;;;;5014554;28;20045;-77
2023/06/10 09:01:43;;;;;;;7.47;4.90;;;27.30;54.50;;;;;;5031208;28;20413;-76
2023/06/10 09:04:10;;;;;;;5.53;4.05;;;27.30;54.30;;;;;;5014685;28;20033;-76
2023/06/10 09:06:37;;;;;;;7.80;4.68;;;27.20;54.00;;;;;;5029424;28;20175;-76
2023/06/10 09:09:05;;;;;;;7.40;4.50;;;27.40;53.30;;;;;;5031719;28;20041;-78
2023/06/10 09:11:31;;;;;;;6.13;4.55;;;27.50;53.10;;;;;;5031497;28;20153;-79
2023/06/10 09:13:57;;;;;;;6.68;4.38;;;27.60;53.50;;;;;;5015910;28;20033;-79
2023/06/10 09:16:24;;;;;;;8.90;4.63;;;27.80;52.60;;;;;;5015556;28;20094;-79
2023/06/10 09:18:54;;;;;;;6.85;4.57;;;27.80;52.70;;;;;;5040519;28;20494;-79
2023/06/10 09:21:22;;;;;;;4.75;4.20;;;27.90;53.50;;;;;;5049187;28;20115;-79
2023/06/10 09:23:48;;;;;;;6.55;4.30;;;28.10;53.00;;;;;;5050973;28;20428;-79
2023/06/10 09:26:13;;;;;;;6.22;4.40;;;28.20;52.80;;;;;;5050172;28;20129;-78
2023/06/10 09:28:42;;;;;;;5.68;4.65;;;28.40;52.10;;;;;;5038328;28;20112;-79
2023/06/10 09:31:09;;;;;;;8.32;4.78;;;28.50;52.10;;;;;;5062318;28;20041;-79
2023/06/10 09:33:38;;;;;;;8.38;4.43;;;28.40;52.80;;;;;;5071931;28;20051;-79
2023/06/10 09:36:04;;;;;;;5.90;4.70;;;28.70;52.30;;;;;;5048227;28;20130;-78
2023/06/10 09:38:32;;;;;;;8.70;4.88;;;29.00;51.60;;;;;;5055527;28;20493;-79
2023/06/10 09:40:57;;;;;;;6.85;4.50;;;29.30;50.70;;;;;;5067316;28;20037;-80
2023/06/10 09:43:37;;;;;;;8.73;4.78;;;29.30;50.30;;;;;;5034465;28;20033;-79
2023/06/10 09:46:03;;;;;;;7.60;5.13;;;29.30;49.80;;;;;;5050436;28;20043;-76
2023/06/10 09:48:28;;;;;;;6.10;5.35;;;29.00;50.90;;;;;;5045698;28;20032;-79
2023/06/10 09:50:54;;;;;;;6.78;5.45;;;29.00;51.20;;;;;;5053969;28;20037;-75
2023/06/10 09:53:20;;;;;;;5.88;4.70;;;29.20;49.70;;;;;;5052030;28;20045;-80
2023/06/10 09:55:46;;;;;;;7.25;5.35;;;29.10;48.90;;;;;;5038085;28;20040;-80
2023/06/10 09:58:12;;;;;;;5.97;4.80;;;29.20;50.10;;;;;;5058835;28;20051;-78
2023/06/10 10:00:37;;;;;;;8.27;5.30;;;29.40;48.30;;;;;;5048864;28;20086;-78
2023/06/10 10:03:03;;;;;;;8.05;4.90;;;29.50;48.20;;;;;;5058784;28;20043;-77
2023/06/10 10:05:29;;;;;;;7.10;5.20;;;29.70;48.10;;;;;;5050767;28;20082;-80
2023/06/10 10:07:56;;;;;;;7.45;4.97;;;29.80;47.00;;;;;;5055079;28;20068;-78
2023/06/10 10:10:22;;;;;;;6.38;5.28;;;30.00;47.80;;;;;;5045858;28;20048;-77
2023/06/10 10:12:55;;;;;;;5.78;4.88;;;30.10;45.80;;;;;;5056596;28;20037;-78
2023/06/10 10:15:22;;;;;;;6.50;4.97;;;30.00;47.90;;;;;;5061003;28;20115;-78
2023/06/10 10:18:09;;;;;;;6.32;4.90;;;30.50;46.30;;;;;;5058371;28;20064;-77
2023/06/10 10:20:43;;;;;;;5.85;4.45;;;30.50;46.50;;;;;;5062348;28;20039;-78
2023/06/10 10:23:10;;;;;;;7.45;5.10;;;30.50;46.00;;;;;;5058627;28;20502;-78
2023/06/10 10:25:40;;;;;;;5.85;5.07;;;30.30;46.90;;;;;;5066324;28;20079;-78
2023/06/10 10:28:10;;;;;;;8.65;5.18;;;30.50;47.00;;;;;;5053254;28;20398;-78
2023/06/10 10:30:50;;;;;;;7.82;5.10;;;30.70;46.60;;;;;;5049813;28;20048;-78
2023/06/10 10:33:23;;;;;;;8.65;5.45;;;30.50;46.50;;;;;;5035622;28;20399;-77
2023/06/10 10:35:50;;;;;;;5.82;4.85;;;30.60;45.70;;;;;;5063023;28;20052;-77
2023/06/10 10:38:16;;;;;;;5.53;4.93;;;30.30;45.60;;;;;;5064933;28;20037;-77
2023/06/10 10:40:43;;;;;;;5.70;4.82;;;30.20;45.50;;;;;;5061968;28;20679;-78
2023/06/10 10:43:10;;;;;;;5.82;4.97;;;30.10;46.10;;;;;;5055648;28;20111;-77
2023/06/10 10:45:35;;;;;;;6.40;4.70;;;30.20;46.10;;;;;;5042771;28;20542;-77
2023/06/10 10:48:09;;;;;;;6.28;5.05;;;30.20;47.60;;;;;;5064848;28;20033;-77
2023/06/10 10:50:35;;;;;;;7.45;4.60;;;30.50;44.90;;;;;;5057254;28;20060;-77
2023/06/10 10:53:03;;;;;;;5.20;4.68;;;30.50;45.50;;;;;;5073725;28;20086;-77
2023/06/10 10:55:29;;;;;;;7.65;5.18;;;30.50;45.40;;;;;;5059440;28;20052;-78
2023/06/10 10:58:07;;;;;;;6.78;4.97;;;30.50;46.00;;;;;;5065361;28;20120;-78
2023/06/10 11:00:34;;;;;;;5.45;4.68;;;30.60;44.50;;;;;;5067105;28;20055;-78
2023/06/10 11:03:03;;;;;;;6.20;4.53;;;30.60;44.50;;;;;;5059357;28;20056;-77
2023/06/10 11:05:48;;;;;;;6.75;4.40;;;30.60;45.00;;;;;;5061601;28;20033;-78
2023/06/10 11:08:32;;;;;;;5.90;4.65;;;30.70;46.50;;;;;;5063179;28;20072;-77
2023/06/10 11:10:58;;;;;;;5.40;4.38;;;31.00;44.20;;;;;;5070698;28;20040;-77
2023/06/10 11:13:26;;;;;;;5.28;4.40;;;31.10;45.90;;;;;;5064486;28;20394;-75
2023/06/10 11:15:56;;;;;;;4.97;4.20;;;31.60;44.70;;;;;;5064938;28;20048;-76
2023/06/10 11:18:26;;;;;;;5.20;4.55;;;31.70;43.70;;;;;;5071548;28;20555;-78
2023/06/10 11:21:00;;;;;;;6.32;4.70;;;31.30;44.30;;;;;;5056251;28;20036;-77
2023/06/10 11:23:28;;;;;;;4.68;3.97;;;31.10;44.20;;;;;;5058027;28;20043;-77
2023/06/10 11:26:32;;;;;;;5.85;4.32;;;31.10;43.90;;;;;;5060716;28;20036;-78
2023/06/10 11:28:57;;;;;;;5.82;4.22;;;31.30;42.70;;;;;;5037016;28;20117;-80
2023/06/10 11:31:37;;;;;;;4.47;4.03;;;31.20;43.70;;;;;;5049411;28;20186;-78
2023/06/10 11:34:06;;;;;;;4.60;4.10;;;31.50;43.50;;;;;;5061961;28;20402;-79
2023/06/10 11:36:44;;;;;;;6.45;4.07;;;31.70;42.50;;;;;;5068051;28;20081;-80
2023/06/10 11:39:11;;;;;;;6.07;3.58;;;31.70;43.10;;;;;;5058585;28;20178;-80
2023/06/10 11:41:38;;;;;;;4.85;3.90;;;32.10;42.60;;;;;;5062021;28;20044;-80
2023/06/10 11:44:09;;;;;;;6.32;4.05;;;32.40;42.20;;;;;;5044645;28;20127;-79
2023/06/10 11:46:35;;;;;;;5.10;4.07;;;32.70;41.80;;;;;;5057036;28;20032;-80
2023/06/10 11:49:02;;;;;;;5.07;3.70;;;32.80;40.10;;;;;;5055045;28;20043;-79
2023/06/10 11:51:32;;;;;;;6.90;3.95;;;32.80;39.60;;;;;;5057255;28;20047;-80
2023/06/10 11:53:57;;;;;;;4.15;3.40;;;32.60;41.50;;;;;;5057069;28;20040;-79
2023/06/10 11:56:25;;;;;;;5.50;3.45;;;32.90;40.30;;;;;;5035674;28;20494;-79
2023/06/10 11:58:57;;;;;;;6.43;3.78;;;32.90;39.90;;;;;;5075262;28;20082;-79
2023/06/10 12:01:24;;;;;;;5.93;4.00;;;33.00;39.70;;;;;;5055240;28;20047;-79
2023/06/10 12:03:57;;;;;;;5.07;4.07;;;33.10;38.60;;;;;;5059436;28;20028;-79
2023/06/10 12:06:23;;;;;;;4.65;3.75;;;32.80;40.30;;;;;;5049296;28;20454;-79
2023/06/10 12:08:48;;;;;;;4.47;3.72;;;32.80;38.10;;;;;;5089219;28;20111;-79
2023/06/10 12:11:14;;;;;;;5.03;3.55;;;32.70;38.70;;;;;;5073430;28;20045;-79
2023/06/10 12:13:49;;;;;;;5.72;3.85;;;32.80;39.50;;;;;;5065678;28;20037;-79
2023/06/10 12:16:15;;;;;;;5.45;3.55;;;33.20;39.40;;;;;;5047303;28;20040;-78
2023/06/10 12:18:44;;;;;;;4.72;3.38;;;33.50;37.60;;;;;;5064598;28;20071;-79
2023/06/10 12:21:22;;;;;;;5.63;3.78;;;33.20;37.20;;;;;;5062504;28;20036;-77
2023/06/10 12:24:05;;;;;;;4.30;3.70;;;32.80;37.20;;;;;;5054394;28;20045;-78
2023/06/10 12:26:39;;;;;;;5.80;3.55;;;32.80;38.50;;;;;;5047564;28;20132;-78
2023/06/10 12:29:24;;;;;;;4.30;3.60;;;32.80;37.60;;;;;;5056889;28;20052;-77
2023/06/10 12:32:05;;;;;;;3.72;3.40;;;32.90;37.10;;;;;;5038854;28;20032;-77
2023/06/10 12:34:38;;;;;;;4.85;3.25;;;32.50;38.30;;;;;;5055362;28;20063;-77
2023/06/10 12:37:13;;;;;;;6.03;3.47;;;32.40;38.20;;;;;;5058436;28;20036;-76
2023/06/10 12:39:40;;;;;;;3.80;3.40;;;32.50;36.90;;;;;;5061185;28;20115;-77
2023/06/10 12:42:09;;;;;;;5.63;3.05;;;32.40;38.00;;;;;;5038109;28;20142;-77
2023/06/10 12:44:38;;;;;;;3.85;3.13;;;32.50;37.30;;;;;;5054361;28;20052;-77
2023/06/10 12:47:09;;;;;;;4.53;3.05;;;32.60;37.10;;;;;;5066609;28;20123;-77